createdAt,value
2022-09-15T00:00:16.320Z,29.789
2022-09-15T00:05:16.577Z,29.791
2022-09-15T00:10:17.349Z,29.792
2022-09-15T00:15:16.590Z,29.793
2022-09-15T00:20:16.314Z,29.794
2022-09-15T00:25:16.486Z,29.798
2022-09-15T00:30:16.283Z,29.799
2022-09-15T00:35:16.358Z,29.799
2022-09-15T00:40:16.668Z,29.800
2022-09-15T00:45:16.487Z,29.801
2022-09-15T00:50:16.364Z,29.802
2022-09-15T00:55:16.563Z,29.802
2022-09-15T01:00:16.477Z,29.802
2022-09-15T01:05:16.542Z,29.803
2022-09-15T01:10:16.692Z,29.804
2022-09-15T01:15:16.979Z,29.804
2022-09-15T01:20:16.373Z,29.804
2022-09-15T01:25:16.523Z,29.803
2022-09-15T01:30:16.657Z,29.804
2022-09-15T01:35:16.440Z,29.805
2022-09-15T01:40:16.822Z,29.806
2022-09-15T01:45:16.686Z,29.808
2022-09-15T01:50:16.681Z,29.809
2022-09-15T01:55:16.628Z,29.810
2022-09-15T02:00:16.568Z,29.811
2022-09-15T02:05:16.612Z,29.811
2022-09-15T02:10:18.960Z,29.813
2022-09-15T02:15:16.685Z,29.815
2022-09-15T02:20:16.988Z,29.816
2022-09-15T02:25:16.707Z,29.815
2022-09-15T02:30:16.675Z,29.817
2022-09-15T02:35:16.626Z,29.820
2022-09-15T02:40:16.883Z,29.820
2022-09-15T02:45:16.858Z,29.821
2022-09-15T02:50:16.603Z,29.822
2022-09-15T02:55:16.986Z,29.824
2022-09-15T03:00:16.672Z,29.824
2022-09-15T03:05:16.755Z,29.823
2022-09-15T03:10:16.590Z,29.824
2022-09-15T03:15:16.892Z,29.824
2022-09-15T03:20:16.766Z,29.823
2022-09-15T03:25:16.967Z,29.822
2022-09-15T03:30:17.091Z,29.824
2022-09-15T03:35:16.873Z,29.823
2022-09-15T03:40:16.781Z,29.824
2022-09-15T03:45:16.881Z,29.826
2022-09-15T03:50:16.706Z,29.826
2022-09-15T03:55:16.820Z,29.826
2022-09-15T04:00:18.136Z,29.825
2022-09-15T04:05:18.065Z,29.829
2022-09-15T04:10:18.693Z,29.828
2022-09-15T04:15:17.823Z,29.829
2022-09-15T04:20:18.073Z,29.828
2022-09-15T04:25:17.963Z,29.828
2022-09-15T04:30:18.074Z,29.828
2022-09-15T04:35:18.095Z,29.827
2022-09-15T04:40:18.009Z,29.828
2022-09-15T04:45:18.127Z,29.830
2022-09-15T04:50:17.822Z,29.830
2022-09-15T04:55:18.008Z,29.829
2022-09-15T05:00:17.897Z,29.830
2022-09-15T05:05:18.006Z,29.830
2022-09-15T05:10:18.030Z,29.830
2022-09-15T05:15:18.185Z,29.832
2022-09-15T05:20:17.889Z,29.831
2022-09-15T05:25:18.012Z,29.832
2022-09-15T05:30:36.907Z,29.831
2022-09-15T05:35:18.019Z,29.832
2022-09-15T05:40:18.164Z,29.833
2022-09-15T05:45:18.884Z,29.834
2022-09-15T05:50:17.989Z,29.836
2022-09-15T05:55:18.103Z,29.838
2022-09-15T06:00:17.978Z,29.839
2022-09-15T06:05:18.020Z,29.841
2022-09-15T06:10:18.855Z,29.843
2022-09-15T06:15:18.075Z,29.846
2022-09-15T06:20:18.448Z,29.845
2022-09-15T06:25:18.303Z,29.844
2022-09-15T06:30:18.227Z,29.848
2022-09-15T06:35:18.118Z,29.848
2022-09-15T06:40:18.429Z,29.847
2022-09-15T06:45:18.416Z,29.849
2022-09-15T06:50:18.127Z,29.849
2022-09-15T06:55:18.360Z,29.854
2022-09-15T07:00:18.193Z,29.856
2022-09-15T07:05:18.203Z,29.859
2022-09-15T07:10:18.125Z,29.863
2022-09-15T07:15:18.185Z,29.862
2022-09-15T07:20:18.220Z,29.860
2022-09-15T07:25:16.389Z,29.856
2022-09-15T07:30:16.453Z,29.859
2022-09-15T07:35:16.316Z,29.865
2022-09-15T07:40:18.188Z,29.867
2022-09-15T07:45:16.464Z,29.866
2022-09-15T07:50:16.462Z,29.864
2022-09-15T07:55:16.232Z,29.865
2022-09-15T08:00:16.373Z,29.868
2022-09-15T08:05:16.428Z,29.873
2022-09-15T08:10:17.208Z,29.879
2022-09-15T08:15:16.382Z,29.881
2022-09-15T08:20:16.257Z,29.880
2022-09-15T08:25:16.340Z,29.882
2022-09-15T08:30:16.364Z,29.882
2022-09-15T08:35:16.547Z,29.884
2022-09-15T08:40:16.492Z,29.888
2022-09-15T08:45:16.434Z,29.890
2022-09-15T08:50:16.713Z,29.893
2022-09-15T08:55:16.414Z,29.894
2022-09-15T09:00:16.864Z,29.896
2022-09-15T09:05:16.469Z,29.899
2022-09-15T09:10:16.571Z,29.901
2022-09-15T09:15:16.450Z,29.900
2022-09-15T09:20:16.632Z,29.903
2022-09-15T09:25:27.313Z,29.908
2022-09-15T09:30:16.735Z,29.906
2022-09-15T09:35:16.465Z,29.908
2022-09-15T09:40:16.626Z,29.909
2022-09-15T09:45:16.877Z,29.909
2022-09-15T09:50:16.578Z,29.916
2022-09-15T09:55:16.483Z,29.917
2022-09-15T10:00:16.601Z,29.920
2022-09-15T10:05:16.584Z,29.926
2022-09-15T10:10:17.780Z,29.926
2022-09-15T10:15:17.667Z,29.929
2022-09-15T10:20:16.462Z,29.931
2022-09-15T10:25:16.645Z,29.931
2022-09-15T10:30:16.633Z,29.934
2022-09-15T10:35:16.771Z,29.936
2022-09-15T10:40:16.675Z,29.943
2022-09-15T10:45:16.826Z,29.948
2022-09-15T10:50:17.105Z,29.947
2022-09-15T10:55:17.211Z,29.952
2022-09-15T11:00:16.661Z,29.953
2022-09-15T11:05:20.569Z,29.961
2022-09-15T11:10:16.681Z,29.955
2022-09-15T11:15:16.755Z,29.962
2022-09-15T11:20:16.981Z,29.964
2022-09-15T11:25:16.982Z,29.966
2022-09-15T11:30:16.827Z,29.966
2022-09-15T11:35:16.799Z,29.970
2022-09-15T11:40:16.722Z,29.971
2022-09-15T11:45:16.916Z,29.974
2022-09-15T11:50:16.661Z,29.977
2022-09-15T11:55:17.404Z,29.978
2022-09-15T12:00:16.929Z,29.977
2022-09-15T12:05:16.820Z,29.975
2022-09-15T12:10:17.580Z,29.976
2022-09-15T12:15:16.854Z,29.970
2022-09-15T12:20:16.785Z,29.971
2022-09-15T12:25:16.843Z,29.974
2022-09-15T12:30:17.493Z,29.975
2022-09-15T12:35:16.792Z,29.979
2022-09-15T12:40:16.801Z,29.978
2022-09-15T12:45:16.991Z,29.980
2022-09-15T12:50:16.762Z,29.981
2022-09-15T12:55:17.390Z,29.979
2022-09-15T13:00:16.917Z,29.978
2022-09-15T13:05:17.103Z,29.979
2022-09-15T13:10:16.798Z,29.979
2022-09-15T13:15:17.062Z,29.981
2022-09-15T13:20:16.956Z,29.981
2022-09-15T13:25:16.950Z,29.983
2022-09-15T13:30:16.995Z,29.979
2022-09-15T13:35:20.452Z,29.983
2022-09-15T13:40:17.608Z,29.985
2022-09-15T13:45:17.015Z,29.985
2022-09-15T13:50:16.989Z,29.983
2022-09-15T13:55:16.969Z,29.985
2022-09-15T14:00:22.267Z,29.984
2022-09-15T14:05:17.178Z,29.985
2022-09-15T14:10:18.489Z,29.986
2022-09-15T14:15:17.425Z,29.988
2022-09-15T14:20:17.018Z,29.987
2022-09-15T14:25:17.134Z,29.984
2022-09-15T14:30:17.273Z,29.985
2022-09-15T14:35:19.620Z,29.983
2022-09-15T14:40:17.218Z,29.984
2022-09-15T14:45:57.825Z,29.984
2022-09-15T14:50:17.545Z,29.985
2022-09-15T14:55:17.219Z,29.984
2022-09-15T15:00:17.480Z,29.983
2022-09-15T15:05:17.279Z,29.985
2022-09-15T15:10:17.170Z,29.985
2022-09-15T15:15:17.505Z,29.988
2022-09-15T15:20:17.123Z,29.988
2022-09-15T15:25:17.181Z,29.990
2022-09-15T15:30:17.234Z,29.990
2022-09-15T15:35:17.483Z,29.993
2022-09-15T15:40:17.229Z,29.987
2022-09-15T15:45:17.422Z,29.986
2022-09-15T15:50:17.341Z,29.982
2022-09-15T15:55:17.435Z,29.984
2022-09-15T16:00:21.092Z,29.985
2022-09-15T16:05:17.529Z,29.983
2022-09-15T16:10:18.100Z,29.985
2022-09-15T16:15:17.407Z,29.984
2022-09-15T16:20:17.277Z,29.984
2022-09-15T16:25:17.543Z,29.984
2022-09-15T16:30:17.447Z,29.985
2022-09-15T16:35:17.373Z,29.980
2022-09-15T16:40:17.456Z,29.983
2022-09-15T16:45:17.432Z,29.981
2022-09-15T16:50:17.947Z,29.981
2022-09-15T16:55:17.481Z,29.979
2022-09-15T17:00:17.823Z,29.972
2022-09-15T17:05:17.392Z,29.971
2022-09-15T17:10:17.495Z,29.972
2022-09-15T17:15:17.537Z,29.973
2022-09-15T17:20:17.410Z,29.967
2022-09-15T17:25:17.487Z,29.965
2022-09-15T17:30:17.385Z,29.963
2022-09-15T17:35:18.685Z,29.966
2022-09-15T17:40:18.043Z,29.972
2022-09-15T17:45:17.717Z,29.976
2022-09-15T17:50:17.602Z,29.977
2022-09-15T17:55:17.513Z,29.972
2022-09-15T18:00:17.661Z,29.973
2022-09-15T18:05:17.830Z,29.974
2022-09-15T18:10:19.032Z,29.977
2022-09-15T18:15:17.547Z,29.973
2022-09-15T18:20:17.580Z,29.970
2022-09-15T18:25:17.501Z,29.970
2022-09-15T18:30:17.541Z,29.965
2022-09-15T18:35:18.660Z,29.963
2022-09-15T18:40:17.840Z,29.965
2022-09-15T18:45:17.818Z,29.967
2022-09-15T18:50:17.539Z,29.967
2022-09-15T18:55:17.630Z,29.965
2022-09-15T19:00:17.915Z,29.962
2022-09-15T19:05:17.644Z,29.960
2022-09-15T19:10:17.613Z,29.958
2022-09-15T19:15:17.656Z,29.955
2022-09-15T19:20:17.995Z,29.956
2022-09-15T19:25:17.745Z,29.953
2022-09-15T19:30:18.176Z,29.950
2022-09-15T19:35:17.785Z,29.944
2022-09-15T19:40:17.756Z,29.942
2022-09-15T19:45:17.756Z,29.943
2022-09-15T19:50:17.738Z,29.940
2022-09-15T19:55:17.902Z,29.938
2022-09-15T20:00:17.649Z,29.941
2022-09-15T20:05:17.796Z,29.936
2022-09-15T20:10:18.743Z,29.936
2022-09-15T20:15:17.987Z,29.935
2022-09-15T20:20:17.630Z,29.937
2022-09-15T20:25:17.869Z,29.939
2022-09-15T20:30:18.186Z,29.944
2022-09-15T20:35:17.941Z,29.945
2022-09-15T20:40:18.094Z,29.944
2022-09-15T20:45:17.938Z,29.942
2022-09-15T20:50:17.841Z,29.944
2022-09-15T20:55:17.902Z,29.945
2022-09-15T21:00:18.102Z,29.950
2022-09-15T21:05:18.047Z,29.950
2022-09-15T21:10:18.086Z,29.945
2022-09-15T21:15:18.122Z,29.947
2022-09-15T21:20:18.699Z,29.954
2022-09-15T21:25:17.898Z,29.959
2022-09-15T21:30:18.078Z,29.966
2022-09-15T21:35:18.217Z,29.969
2022-09-15T21:40:17.933Z,29.968
2022-09-15T21:45:18.005Z,29.963
2022-09-15T21:50:18.003Z,29.966
2022-09-15T21:55:18.038Z,29.972
2022-09-15T22:00:18.088Z,29.976
2022-09-15T22:05:18.194Z,29.981
2022-09-15T22:10:18.946Z,29.980
2022-09-15T22:15:18.008Z,29.981
2022-09-15T22:20:17.884Z,29.985
2022-09-15T22:25:21.764Z,29.992
2022-09-15T22:30:18.091Z,29.997
2022-09-15T22:35:18.030Z,30.001
2022-09-15T23:20:29.776Z,30.001
2022-09-15T23:25:18.341Z,29.998
2022-09-15T23:30:18.148Z,29.983
2022-09-15T23:35:18.220Z,29.983
2022-09-15T23:40:18.179Z,29.991
2022-09-15T23:45:18.353Z,30.005
2022-09-15T23:50:18.195Z,30.009
2022-09-15T23:55:16.238Z,30.010
